^^
Station Historical Data
Daily Summary for June 27, 2017 Units:  Both    English   Metric
« Previous Day
Next Day »
Daily Weekly Monthly Yearly Custom
  High: Low: Average:
Temperature: 71.4 °F /  21.9 °C 47.5 °F /  8.6 °C 57.5 °F /  14.2 °C
Dew Point: 44.6 °F /  7 °C 25.3 °F /  -3.7 °C 33.5 °F /  0.8 °C
Humidity: 62% 22% 43%
Wind Speed: 16.1mph /  25.9km/h - 1.7mph /  2.7km/h
Wind Gust: 20.0mph /  32.2km/h - -
Wind- - West
Pressure: 30.32 in /  1026.6 hPa 30.19 in /  1022.2 hPa -
Precipitation: 0.00 in /  0 mm    
Historical Graphs
 
 
Tabular Data for June 27, 2017
Time Temperature Dew Point Pressure Wind Wind Speed Wind Gust Humidity Rainfall Rate (Hourly) solar Conditions
00:05 48.6 °F /  9.2 °C 31.3 °F /  -0.4 °C 30.32in /  1026.6hPa Calm     51% 0.00in /  0mm 0.0 W/m2
00:11 48.4 °F /  9.1 °C 31.6 °F /  -0.2 °C 30.32in /  1026.6hPa Calm     52% 0.00in /  0mm 0.0 W/m2
00:17 48.0 °F /  8.9 °C 30.7 °F /  -0.7 °C 30.32in /  1026.6hPa Calm     51% 0.00in /  0mm 0.0 W/m2
00:24 47.8 °F /  8.8 °C 31.1 °F /  -0.5 °C 30.32in /  1026.6hPa Calm     52% 0.00in /  0mm 0.0 W/m2
00:30 47.7 °F /  8.7 °C 31.3 °F /  -0.4 °C 30.32in /  1026.6hPa Calm     53% 0.00in /  0mm 0.0 W/m2
00:36 47.5 °F /  8.6 °C 31.3 °F /  -0.4 °C 30.32in /  1026.6hPa Calm     53% 0.00in /  0mm 0.0 W/m2
00:42 47.7 °F /  8.7 °C 31.3 °F /  -0.4 °C 30.31in /  1026.3hPa Calm     53% 0.00in /  0mm 0.0 W/m2
00:48 47.7 °F /  8.7 °C 31.3 °F /  -0.4 °C 30.32in /  1026.6hPa Calm     53% 0.00in /  0mm 0.0 W/m2
00:54 47.7 °F /  8.7 °C 31.3 °F /  -0.4 °C 30.31in /  1026.3hPa Calm     53% 0.00in /  0mm 0.0 W/m2
01:01 47.7 °F /  8.7 °C 31.3 °F /  -0.4 °C 30.31in /  1026.3hPa Calm     53% 0.00in /  0mm 0.0 W/m2
01:07 47.7 °F /  8.7 °C 31.3 °F /  -0.4 °C 30.31in /  1026.3hPa Calm     53% 0.00in /  0mm 0.0 W/m2
01:13 47.8 °F /  8.8 °C 31.5 °F /  -0.3 °C 30.31in /  1026.3hPa Calm     53% 0.00in /  0mm 0.0 W/m2
01:15 47.8 °F /  8.8 °C 31.5 °F /  -0.3 °C 30.31in /  1026.3hPa Calm     53% 0.00in /  0mm 0.0 W/m2
01:21 47.8 °F /  8.8 °C 31.5 °F /  -0.3 °C 30.31in /  1026.3hPa Calm     53% 0.00in /  0mm 0.0 W/m2
01:27 47.8 °F /  8.8 °C 31.5 °F /  -0.3 °C 30.31in /  1026.3hPa Calm     53% 0.00in /  0mm 0.0 W/m2
01:33 47.8 °F /  8.8 °C 31.5 °F /  -0.3 °C 30.31in /  1026.3hPa Calm     53% 0.00in /  0mm 0.0 W/m2
01:39 47.8 °F /  8.8 °C 31.5 °F /  -0.3 °C 30.30in /  1026hPa Calm     53% 0.00in /  0mm 0.0 W/m2
01:46 48.0 °F /  8.9 °C 31.6 °F /  -0.2 °C 30.30in /  1026hPa Calm     53% 0.00in /  0mm 0.0 W/m2
01:52 48.0 °F /  8.9 °C 31.6 °F /  -0.2 °C 30.30in /  1026hPa Calm     53% 0.00in /  0mm 0.0 W/m2
01:58 48.0 °F /  8.9 °C 32.2 °F /  0.1 °C 30.30in /  1026hPa Calm     54% 0.00in /  0mm 0.0 W/m2
02:04 48.0 °F /  8.9 °C 32.2 °F /  0.1 °C 30.30in /  1026hPa Calm     54% 0.00in /  0mm 0.0 W/m2
02:10 48.0 °F /  8.9 °C 32.2 °F /  0.1 °C 30.29in /  1025.6hPa Calm     54% 0.00in /  0mm 0.0 W/m2
02:16 48.2 °F /  9 °C 32.4 °F /  0.2 °C 30.29in /  1025.6hPa Calm     54% 0.00in /  0mm 0.0 W/m2
02:22 48.4 °F /  9.1 °C 32.5 °F /  0.3 °C 30.29in /  1025.6hPa Calm     54% 0.00in /  0mm 0.0 W/m2
02:28 48.4 °F /  9.1 °C 32.5 °F /  0.3 °C 30.28in /  1025.3hPa Calm     54% 0.00in /  0mm 0.0 W/m2
02:34 48.4 °F /  9.1 °C 32.9 °F /  0.5 °C 30.28in /  1025.3hPa Calm     55% 0.00in /  0mm 0.0 W/m2
02:40 48.4 °F /  9.1 °C 32.9 °F /  0.5 °C 30.28in /  1025.3hPa Calm     55% 0.00in /  0mm 0.0 W/m2
02:46 48.4 °F /  9.1 °C 33.4 °F /  0.8 °C 30.27in /  1024.9hPa Calm     56% 0.00in /  0mm 0.0 W/m2
02:52 48.4 °F /  9.1 °C 33.4 °F /  0.8 °C 30.27in /  1024.9hPa Calm     56% 0.00in /  0mm 0.0 W/m2
02:58 48.4 °F /  9.1 °C 32.9 °F /  0.5 °C 30.27in /  1024.9hPa Calm     55% 0.00in /  0mm 0.0 W/m2
03:04 48.4 °F /  9.1 °C 33.4 °F /  0.8 °C 30.27in /  1024.9hPa Calm     56% 0.00in /  0mm 0.0 W/m2
03:10 48.4 °F /  9.1 °C 33.8 °F /  1 °C 30.27in /  1024.9hPa Calm     57% 0.00in /  0mm 0.0 W/m2
03:16 48.4 °F /  9.1 °C 33.8 °F /  1 °C 30.27in /  1024.9hPa Calm     57% 0.00in /  0mm 0.0 W/m2
03:23 48.6 °F /  9.2 °C 34.0 °F /  1.1 °C 30.27in /  1024.9hPa Calm     57% 0.00in /  0mm 0.0 W/m2
03:28 48.6 °F /  9.2 °C 34.0 °F /  1.1 °C 30.27in /  1024.9hPa Calm     57% 0.00in /  0mm 0.0 W/m2
03:35 48.4 °F /  9.1 °C 33.8 °F /  1 °C 30.27in /  1024.9hPa Calm     57% 0.00in /  0mm 0.0 W/m2
03:41 48.4 °F /  9.1 °C 33.8 °F /  1 °C 30.27in /  1024.9hPa Calm     57% 0.00in /  0mm 0.0 W/m2
03:47 48.6 °F /  9.2 °C 34.0 °F /  1.1 °C 30.27in /  1024.9hPa Calm     57% 0.00in /  0mm 0.0 W/m2
03:52 48.6 °F /  9.2 °C 34.5 °F /  1.4 °C 30.27in /  1024.9hPa Calm     58% 0.00in /  0mm 0.0 W/m2
03:59 48.7 °F /  9.3 °C 34.7 °F /  1.5 °C 30.27in /  1024.9hPa Calm     58% 0.00in /  0mm 0.0 W/m2
04:05 48.9 °F /  9.4 °C 34.3 °F /  1.3 °C 30.27in /  1024.9hPa Calm     57% 0.00in /  0mm 0.0 W/m2
04:12 48.9 °F /  9.4 °C 34.3 °F /  1.3 °C 30.27in /  1024.9hPa Calm     57% 0.00in /  0mm 0.0 W/m2
04:19 48.9 °F /  9.4 °C 34.9 °F /  1.6 °C 30.27in /  1024.9hPa Calm     58% 0.00in /  0mm 0.0 W/m2
04:25 48.7 °F /  9.3 °C 34.7 °F /  1.5 °C 30.27in /  1024.9hPa Calm     58% 0.00in /  0mm 0.0 W/m2
04:31 48.7 °F /  9.3 °C 34.7 °F /  1.5 °C 30.27in /  1024.9hPa Calm     58% 0.00in /  0mm 0.0 W/m2
04:37 48.7 °F /  9.3 °C 34.7 °F /  1.5 °C 30.27in /  1024.9hPa Calm     58% 0.00in /  0mm 0.0 W/m2
04:43 48.7 °F /  9.3 °C 34.7 °F /  1.5 °C 30.27in /  1024.9hPa Calm     58% 0.00in /  0mm 0.0 W/m2
04:49 48.7 °F /  9.3 °C 34.7 °F /  1.5 °C 30.27in /  1024.9hPa Calm     58% 0.00in /  0mm 0.0 W/m2
04:55 48.7 °F /  9.3 °C 34.7 °F /  1.5 °C 30.27in /  1024.9hPa Calm     58% 0.00in /  0mm 0.0 W/m2
05:01 48.7 °F /  9.3 °C 34.7 °F /  1.5 °C 30.27in /  1024.9hPa Calm     58% 0.00in /  0mm 0.0 W/m2
05:07 48.7 °F /  9.3 °C 35.1 °F /  1.7 °C 30.27in /  1024.9hPa Calm   2.0mph /  3.2km/h 59% 0.00in /  0mm 0.0 W/m2
05:13 49.3 °F /  9.6 °C 35.6 °F /  2 °C 30.27in /  1024.9hPa Calm   3.0mph /  4.8km/h 59% 0.00in /  0mm 0.0 W/m2
05:19 49.8 °F /  9.9 °C 35.6 °F /  2 °C 30.27in /  1024.9hPa ENE 0.9mph /  1.4km/h 2.0mph /  3.2km/h 58% 0.00in /  0mm 0.0 W/m2
05:25 50.4 °F /  10.2 °C 36.1 °F /  2.3 °C 30.27in /  1024.9hPa Calm   3.0mph /  4.8km/h 58% 0.00in /  0mm 0.0 W/m2
05:31 50.7 °F /  10.4 °C 36.0 °F /  2.2 °C 30.28in /  1025.3hPa Calm     57% 0.00in /  0mm 0.0 W/m2
05:37 50.9 °F /  10.5 °C 36.1 °F /  2.3 °C 30.28in /  1025.3hPa Calm   1.0mph /  1.6km/h 57% 0.00in /  0mm 0.0 W/m2
05:43 50.7 °F /  10.4 °C 36.0 °F /  2.2 °C 30.28in /  1025.3hPa Calm     57% 0.00in /  0mm 0.0 W/m2
05:49 50.7 °F /  10.4 °C 36.5 °F /  2.5 °C 30.28in /  1025.3hPa Calm     58% 0.00in /  0mm 0.0 W/m2
05:55 50.4 °F /  10.2 °C 36.5 °F /  2.5 °C 30.29in /  1025.6hPa Calm     59% 0.00in /  0mm 0.0 W/m2
06:01 50.2 °F /  10.1 °C 37.2 °F /  2.9 °C 30.29in /  1025.6hPa Calm   3.0mph /  4.8km/h 61% 0.00in /  0mm 0.0 W/m2
06:07 50.4 °F /  10.2 °C 37.8 °F /  3.2 °C 30.29in /  1025.6hPa Calm   2.0mph /  3.2km/h 62% 0.00in /  0mm 0.0 W/m2
06:13 50.5 °F /  10.3 °C 37.6 °F /  3.1 °C 30.29in /  1025.6hPa NE 0.9mph /  1.4km/h 2.0mph /  3.2km/h 61% 0.00in /  0mm 0.0 W/m2
06:19 50.9 °F /  10.5 °C 37.9 °F /  3.3 °C 30.29in /  1025.6hPa Calm     61% 0.00in /  0mm 0.0 W/m2
06:25 51.1 °F /  10.6 °C 38.1 °F /  3.4 °C 30.29in /  1025.6hPa NNE 2.0mph /  3.2km/h 3.0mph /  4.8km/h 61% 0.00in /  0mm 0.0 W/m2
06:31 51.1 °F /  10.6 °C 38.1 °F /  3.4 °C 30.29in /  1025.6hPa Calm   1.0mph /  1.6km/h 61% 0.00in /  0mm 0.0 W/m2
06:37 51.4 °F /  10.8 °C 37.9 °F /  3.3 °C 30.30in /  1026hPa Calm   2.0mph /  3.2km/h 60% 0.00in /  0mm 5.0 W/m2
06:43 51.6 °F /  10.9 °C 37.8 °F /  3.2 °C 30.30in /  1026hPa Calm   1.0mph /  1.6km/h 59% 0.00in /  0mm 9.0 W/m2
06:49 51.8 °F /  11 °C 37.9 °F /  3.3 °C 30.30in /  1026hPa Calm   2.0mph /  3.2km/h 59% 0.00in /  0mm 12.0 W/m2
06:55 51.6 °F /  10.9 °C 37.4 °F /  3 °C 30.30in /  1026hPa NNE 0.9mph /  1.4km/h 1.0mph /  1.6km/h 58% 0.00in /  0mm 16.0 W/m2
07:01 51.6 °F /  10.9 °C 37.4 °F /  3 °C 30.30in /  1026hPa Calm   1.0mph /  1.6km/h 58% 0.00in /  0mm 19.0 W/m2
07:07 51.6 °F /  10.9 °C 36.9 °F /  2.7 °C 30.30in /  1026hPa Calm   2.0mph /  3.2km/h 57% 0.00in /  0mm 23.0 W/m2
07:13 51.6 °F /  10.9 °C 36.9 °F /  2.7 °C 30.30in /  1026hPa Calm     57% 0.00in /  0mm 26.0 W/m2
07:19 51.4 °F /  10.8 °C 36.7 °F /  2.6 °C 30.30in /  1026hPa Calm     57% 0.00in /  0mm 30.0 W/m2
07:25 51.4 °F /  10.8 °C 36.7 °F /  2.6 °C 30.30in /  1026hPa Calm   1.0mph /  1.6km/h 57% 0.00in /  0mm 32.0 W/m2
07:31 51.4 °F /  10.8 °C 36.7 °F /  2.6 °C 30.30in /  1026hPa Calm   1.0mph /  1.6km/h 57% 0.00in /  0mm 35.0 W/m2
07:37 51.6 °F /  10.9 °C 37.8 °F /  3.2 °C 30.30in /  1026hPa Calm   4.0mph /  6.4km/h 59% 0.00in /  0mm 39.0 W/m2
07:43 52.2 °F /  11.2 °C 38.3 °F /  3.5 °C 30.31in /  1026.3hPa Calm   1.0mph /  1.6km/h 59% 0.00in /  0mm 42.0 W/m2
07:49 52.3 °F /  11.3 °C 38.5 °F /  3.6 °C 30.31in /  1026.3hPa NNW 2.0mph /  3.2km/h 2.0mph /  3.2km/h 59% 0.00in /  0mm 44.0 W/m2
07:55 53.1 °F /  11.7 °C 38.7 °F /  3.7 °C 30.31in /  1026.3hPa NNW 0.9mph /  1.4km/h 2.0mph /  3.2km/h 58% 0.00in /  0mm 113.0 W/m2
08:01 54.0 °F /  12.2 °C 39.0 °F /  3.9 °C 30.32in /  1026.6hPa Calm   2.0mph /  3.2km/h 57% 0.00in /  0mm 213.0 W/m2
08:07 55.0 °F /  12.8 °C 39.6 °F /  4.2 °C 30.31in /  1026.3hPa Calm   3.0mph /  4.8km/h 56% 0.00in /  0mm 234.0 W/m2
08:13 55.8 °F /  13.2 °C 39.9 °F /  4.4 °C 30.31in /  1026.3hPa Calm   1.0mph /  1.6km/h 55% 0.00in /  0mm 251.0 W/m2
08:19 56.5 °F /  13.6 °C 40.5 °F /  4.7 °C 30.31in /  1026.3hPa NW 2.0mph /  3.2km/h 2.0mph /  3.2km/h 55% 0.00in /  0mm 269.0 W/m2
08:25 57.0 °F /  13.9 °C 41.0 °F /  5 °C 30.31in /  1026.3hPa Calm   2.0mph /  3.2km/h 55% 0.00in /  0mm 287.0 W/m2
08:31 57.4 °F /  14.1 °C 41.9 °F /  5.5 °C 30.31in /  1026.3hPa NNW 4.0mph /  6.4km/h 4.0mph /  6.4km/h 56% 0.00in /  0mm 306.0 W/m2
08:37 57.6 °F /  14.2 °C 41.9 °F /  5.5 °C 30.31in /  1026.3hPa North 0.9mph /  1.4km/h 6.0mph /  9.7km/h 56% 0.00in /  0mm 323.0 W/m2
08:43 57.7 °F /  14.3 °C 42.1 °F /  5.6 °C 30.31in /  1026.3hPa Calm   9.0mph /  14.5km/h 56% 0.00in /  0mm 339.0 W/m2
08:49 57.9 °F /  14.4 °C 42.3 °F /  5.7 °C 30.31in /  1026.3hPa NNW 2.9mph /  4.7km/h 5.0mph /  8km/h 56% 0.00in /  0mm 357.0 W/m2
08:55 58.5 °F /  14.7 °C 42.8 °F /  6 °C 30.32in /  1026.6hPa Calm   6.0mph /  9.7km/h 56% 0.00in /  0mm 373.0 W/m2
09:01 58.6 °F /  14.8 °C 43.0 °F /  6.1 °C 30.31in /  1026.3hPa North 2.0mph /  3.2km/h 5.0mph /  8km/h 56% 0.00in /  0mm 392.0 W/m2
09:07 58.8 °F /  14.9 °C 42.6 °F /  5.9 °C 30.31in /  1026.3hPa NW 2.0mph /  3.2km/h 6.0mph /  9.7km/h 55% 0.00in /  0mm 408.0 W/m2
09:13 59.2 °F /  15.1 °C 43.0 °F /  6.1 °C 30.31in /  1026.3hPa NNW 4.9mph /  7.9km/h 5.0mph /  8km/h 55% 0.00in /  0mm 424.0 W/m2
09:19 59.5 °F /  15.3 °C 43.3 °F /  6.3 °C 30.31in /  1026.3hPa NNE 4.9mph /  7.9km/h 10.0mph /  16.1km/h 55% 0.00in /  0mm 436.0 W/m2
09:25 59.7 °F /  15.4 °C 43.0 °F /  6.1 °C 30.31in /  1026.3hPa NNW 4.0mph /  6.4km/h 12.0mph /  19.3km/h 54% 0.00in /  0mm 454.0 W/m2
09:31 60.1 °F /  15.6 °C 43.3 °F /  6.3 °C 30.31in /  1026.3hPa North 4.0mph /  6.4km/h 9.0mph /  14.5km/h 54% 0.00in /  0mm 471.0 W/m2
09:37 60.4 °F /  15.8 °C 43.2 °F /  6.2 °C 30.31in /  1026.3hPa NNW 6.0mph /  9.7km/h 9.0mph /  14.5km/h 53% 0.00in /  0mm 485.0 W/m2
09:43 60.8 °F /  16 °C 43.5 °F /  6.4 °C 30.31in /  1026.3hPa NNW 8.1mph /  13km/h 12.0mph /  19.3km/h 53% 0.00in /  0mm 497.0 W/m2
09:49 61.0 °F /  16.1 °C 43.7 °F /  6.5 °C 30.30in /  1026hPa North 6.0mph /  9.7km/h 6.0mph /  9.7km/h 53% 0.00in /  0mm 512.0 W/m2
09:55 61.3 °F /  16.3 °C 44.1 °F /  6.7 °C 30.31in /  1026.3hPa North 0.9mph /  1.4km/h 11.0mph /  17.7km/h 53% 0.00in /  0mm 526.0 W/m2
10:01 61.9 °F /  16.6 °C 44.1 °F /  6.7 °C 30.31in /  1026.3hPa North 4.9mph /  7.9km/h 12.0mph /  19.3km/h 52% 0.00in /  0mm 534.0 W/m2
10:07 62.2 °F /  16.8 °C 43.9 °F /  6.6 °C 30.30in /  1026hPa NNW 2.9mph /  4.7km/h 10.0mph /  16.1km/h 51% 0.00in /  0mm 547.0 W/m2
10:13 62.8 °F /  17.1 °C 43.9 °F /  6.6 °C 30.30in /  1026hPa NNE 8.9mph /  14.3km/h 13.0mph /  20.9km/h 50% 0.00in /  0mm 548.0 W/m2
10:19 63.1 °F /  17.3 °C 44.2 °F /  6.8 °C 30.30in /  1026hPa NW 0.9mph /  1.4km/h 7.0mph /  11.3km/h 50% 0.00in /  0mm 568.0 W/m2
10:25 63.7 °F /  17.6 °C 44.2 °F /  6.8 °C 30.30in /  1026hPa NNE 2.9mph /  4.7km/h 9.0mph /  14.5km/h 49% 0.00in /  0mm 575.0 W/m2
10:31 64.2 °F /  17.9 °C 44.6 °F /  7 °C 30.29in /  1025.6hPa Calm   9.0mph /  14.5km/h 49% 0.00in /  0mm 580.0 W/m2
10:37 64.8 °F /  18.2 °C 44.1 °F /  6.7 °C 30.29in /  1025.6hPa NNW 4.0mph /  6.4km/h 12.0mph /  19.3km/h 47% 0.00in /  0mm 578.0 W/m2
10:47 65.7 °F /  18.7 °C 42.6 °F /  5.9 °C 30.28in /  1025.3hPa NW 6.0mph /  9.7km/h 11.0mph /  17.7km/h 43% 0.00in /  0mm 601.0 W/m2
10:53 65.8 °F /  18.8 °C 42.8 °F /  6 °C 30.28in /  1025.3hPa NNW 6.0mph /  9.7km/h 11.0mph /  17.7km/h 43% 0.00in /  0mm 598.0 W/m2
10:59 66.0 °F /  18.9 °C 41.7 °F /  5.4 °C 30.28in /  1025.3hPa NNW 16.1mph /  25.9km/h 16.1mph /  25.9km/h 41% 0.00in /  0mm 617.0 W/m2
11:05 66.0 °F /  18.9 °C 41.0 °F /  5 °C 30.28in /  1025.3hPa WNW 8.9mph /  14.3km/h 12.0mph /  19.3km/h 40% 0.00in /  0mm 629.0 W/m2
11:11 66.2 °F /  19 °C 41.7 °F /  5.4 °C 30.28in /  1025.3hPa NNW 6.9mph /  11.1km/h 9.0mph /  14.5km/h 41% 0.00in /  0mm 626.0 W/m2
11:17 66.6 °F /  19.2 °C 40.8 °F /  4.9 °C 30.28in /  1025.3hPa NNW 4.0mph /  6.4km/h 8.0mph /  12.9km/h 39% 0.00in /  0mm 628.0 W/m2
11:23 66.7 °F /  19.3 °C 40.3 °F /  4.6 °C 30.28in /  1025.3hPa Calm   10.0mph /  16.1km/h 38% 0.00in /  0mm 624.0 W/m2
11:29 67.3 °F /  19.6 °C 40.1 °F /  4.5 °C 30.28in /  1025.3hPa NW 8.9mph /  14.3km/h 12.0mph /  19.3km/h 37% 0.00in /  0mm 636.0 W/m2
11:36 67.3 °F /  19.6 °C 40.1 °F /  4.5 °C 30.27in /  1024.9hPa WSW 2.0mph /  3.2km/h 12.0mph /  19.3km/h 37% 0.00in /  0mm 645.0 W/m2
11:42 67.3 °F /  19.6 °C 40.1 °F /  4.5 °C 30.27in /  1024.9hPa North 6.9mph /  11.1km/h 11.0mph /  17.7km/h 37% 0.00in /  0mm 642.0 W/m2
11:48 67.3 °F /  19.6 °C 40.1 °F /  4.5 °C 30.27in /  1024.9hPa NW 4.9mph /  7.9km/h 13.0mph /  20.9km/h 37% 0.00in /  0mm 645.0 W/m2
11:54 67.6 °F /  19.8 °C 40.5 °F /  4.7 °C 30.27in /  1024.9hPa NNW 8.9mph /  14.3km/h 14.0mph /  22.5km/h 37% 0.00in /  0mm 643.0 W/m2
12:00 67.8 °F /  19.9 °C 40.6 °F /  4.8 °C 30.27in /  1024.9hPa NNW 8.9mph /  14.3km/h 13.0mph /  20.9km/h 37% 0.00in /  0mm 636.0 W/m2
12:06 67.8 °F /  19.9 °C 39.9 °F /  4.4 °C 30.26in /  1024.6hPa NW 2.9mph /  4.7km/h 15.0mph /  24.1km/h 36% 0.00in /  0mm 642.0 W/m2
12:12 68.2 °F /  20.1 °C 40.3 °F /  4.6 °C 30.26in /  1024.6hPa SE 2.0mph /  3.2km/h 14.0mph /  22.5km/h 36% 0.00in /  0mm 638.0 W/m2
12:18 68.2 °F /  20.1 °C 40.3 °F /  4.6 °C 30.25in /  1024.3hPa NNW 4.0mph /  6.4km/h 13.0mph /  20.9km/h 36% 0.00in /  0mm 649.0 W/m2
12:24 68.5 °F /  20.3 °C 39.7 °F /  4.3 °C 30.25in /  1024.3hPa WSW 2.0mph /  3.2km/h 17.0mph /  27.4km/h 35% 0.00in /  0mm 642.0 W/m2
12:30 68.7 °F /  20.4 °C 39.9 °F /  4.4 °C 30.24in /  1023.9hPa SW 2.9mph /  4.7km/h 11.0mph /  17.7km/h 35% 0.00in /  0mm 645.0 W/m2
12:36 69.1 °F /  20.6 °C 39.6 °F /  4.2 °C 30.24in /  1023.9hPa NNW 2.9mph /  4.7km/h 18.0mph /  29km/h 34% 0.00in /  0mm 638.0 W/m2
12:42 69.4 °F /  20.8 °C 39.0 °F /  3.9 °C 30.24in /  1023.9hPa NNW 6.0mph /  9.7km/h 8.0mph /  12.9km/h 33% 0.00in /  0mm 628.0 W/m2
12:48 69.4 °F /  20.8 °C 38.3 °F /  3.5 °C 30.23in /  1023.6hPa NW 8.1mph /  13km/h 15.0mph /  24.1km/h 32% 0.00in /  0mm 638.0 W/m2
12:54 69.4 °F /  20.8 °C 37.4 °F /  3 °C 30.23in /  1023.6hPa NNW 6.9mph /  11.1km/h 10.0mph /  16.1km/h 31% 0.00in /  0mm 631.0 W/m2
13:01 69.8 °F /  21 °C 37.0 °F /  2.8 °C 30.22in /  1023.2hPa NW 2.9mph /  4.7km/h 18.0mph /  29km/h 30% 0.00in /  0mm 610.0 W/m2
13:07 70.0 °F /  21.1 °C 36.3 °F /  2.4 °C 30.22in /  1023.2hPa WNW 6.9mph /  11.1km/h 15.0mph /  24.1km/h 29% 0.00in /  0mm 605.0 W/m2
13:13 70.2 °F /  21.2 °C 36.5 °F /  2.5 °C 30.22in /  1023.2hPa NNW 6.9mph /  11.1km/h 11.0mph /  17.7km/h 29% 0.00in /  0mm 596.0 W/m2
13:19 70.3 °F /  21.3 °C 35.6 °F /  2 °C 30.22in /  1023.2hPa WNW 8.1mph /  13km/h 16.0mph /  25.7km/h 28% 0.00in /  0mm 589.0 W/m2
13:25 70.5 °F /  21.4 °C 36.7 °F /  2.6 °C 30.21in /  1022.9hPa West 15.0mph /  24.1km/h 15.0mph /  24.1km/h 29% 0.00in /  0mm 571.0 W/m2
13:31 70.9 °F /  21.6 °C 34.3 °F /  1.3 °C 30.21in /  1022.9hPa NW 14.1mph /  22.7km/h 20.0mph /  32.2km/h 26% 0.00in /  0mm 584.0 W/m2
13:37 70.7 °F /  21.5 °C 33.1 °F /  0.6 °C 30.21in /  1022.9hPa West 8.1mph /  13km/h 13.0mph /  20.9km/h 25% 0.00in /  0mm 555.0 W/m2
13:43 70.5 °F /  21.4 °C 32.0 °F /  0 °C 30.20in /  1022.6hPa West 2.0mph /  3.2km/h 9.0mph /  14.5km/h 24% 0.00in /  0mm 527.0 W/m2
13:49 70.9 °F /  21.6 °C 33.3 °F /  0.7 °C 30.21in /  1022.9hPa NW 2.9mph /  4.7km/h 16.0mph /  25.7km/h 25% 0.00in /  0mm 547.0 W/m2
13:55 71.1 °F /  21.7 °C 32.4 °F /  0.2 °C 30.20in /  1022.6hPa NW 4.0mph /  6.4km/h 12.0mph /  19.3km/h 24% 0.00in /  0mm 519.0 W/m2
14:01 71.2 °F /  21.8 °C 33.6 °F /  0.9 °C 30.20in /  1022.6hPa WNW 12.1mph /  19.5km/h 13.0mph /  20.9km/h 25% 0.00in /  0mm 503.0 W/m2
14:07 71.1 °F /  21.7 °C 32.4 °F /  0.2 °C 30.20in /  1022.6hPa West 6.9mph /  11.1km/h 10.0mph /  16.1km/h 24% 0.00in /  0mm 476.0 W/m2
14:13 71.1 °F /  21.7 °C 32.4 °F /  0.2 °C 30.20in /  1022.6hPa WNW 2.9mph /  4.7km/h 9.0mph /  14.5km/h 24% 0.00in /  0mm 466.0 W/m2
14:19 71.2 °F /  21.8 °C 33.6 °F /  0.9 °C 30.20in /  1022.6hPa WNW 2.0mph /  3.2km/h 11.0mph /  17.7km/h 25% 0.00in /  0mm 468.0 W/m2
14:25 71.4 °F /  21.9 °C 31.6 °F /  -0.2 °C 30.20in /  1022.6hPa WNW 6.9mph /  11.1km/h 13.0mph /  20.9km/h 23% 0.00in /  0mm 431.0 W/m2
14:32 71.2 °F /  21.8 °C 32.5 °F /  0.3 °C 30.20in /  1022.6hPa West 8.9mph /  14.3km/h 16.0mph /  25.7km/h 24% 0.00in /  0mm 439.0 W/m2
14:38 71.4 °F /  21.9 °C 32.7 °F /  0.4 °C 30.20in /  1022.6hPa West 4.9mph /  7.9km/h 14.0mph /  22.5km/h 24% 0.00in /  0mm 420.0 W/m2
14:44 71.4 °F /  21.9 °C 32.7 °F /  0.4 °C 30.20in /  1022.6hPa NW 4.9mph /  7.9km/h 15.0mph /  24.1km/h 24% 0.00in /  0mm 410.0 W/m2
14:50 71.2 °F /  21.8 °C 31.5 °F /  -0.3 °C 30.20in /  1022.6hPa NNW 2.0mph /  3.2km/h 11.0mph /  17.7km/h 23% 0.00in /  0mm 383.0 W/m2
14:56 71.2 °F /  21.8 °C 31.5 °F /  -0.3 °C 30.20in /  1022.6hPa NNW 2.9mph /  4.7km/h 9.0mph /  14.5km/h 23% 0.00in /  0mm 387.0 W/m2
15:03 71.1 °F /  21.7 °C 30.2 °F /  -1 °C 30.20in /  1022.6hPa NW 0.9mph /  1.4km/h 11.0mph /  17.7km/h 22% 0.00in /  0mm 364.0 W/m2
15:09 70.9 °F /  21.6 °C 30.2 °F /  -1 °C 30.20in /  1022.6hPa WNW 10.1mph /  16.3km/h 17.0mph /  27.4km/h 22% 0.00in /  0mm 327.0 W/m2
15:15 70.5 °F /  21.4 °C 29.8 °F /  -1.2 °C 30.20in /  1022.6hPa WNW 2.9mph /  4.7km/h 18.0mph /  29km/h 22% 0.00in /  0mm 320.0 W/m2
15:21 70.5 °F /  21.4 °C 29.8 °F /  -1.2 °C 30.20in /  1022.6hPa NNW 4.9mph /  7.9km/h 13.0mph /  20.9km/h 22% 0.00in /  0mm 248.0 W/m2
15:27 70.2 °F /  21.2 °C 30.6 °F /  -0.8 °C 30.20in /  1022.6hPa NW 4.0mph /  6.4km/h 5.0mph /  8km/h 23% 0.00in /  0mm 62.0 W/m2
15:33 70.2 °F /  21.2 °C 30.6 °F /  -0.8 °C 30.19in /  1022.2hPa NW 6.9mph /  11.1km/h 9.0mph /  14.5km/h 23% 0.00in /  0mm 54.0 W/m2
15:39 70.0 °F /  21.1 °C 30.6 °F /  -0.8 °C 30.20in /  1022.6hPa NNW 4.0mph /  6.4km/h 11.0mph /  17.7km/h 23% 0.00in /  0mm 53.0 W/m2
15:43 69.8 °F /  21 °C 31.5 °F /  -0.3 °C 30.20in /  1022.6hPa NW 0.9mph /  1.4km/h 6.0mph /  9.7km/h 24% 0.00in /  0mm 53.0 W/m2
15:49 69.6 °F /  20.9 °C 30.2 °F /  -1 °C 30.20in /  1022.6hPa NW 4.0mph /  6.4km/h 10.0mph /  16.1km/h 23% 0.00in /  0mm 51.0 W/m2
15:55 69.3 °F /  20.7 °C 29.8 °F /  -1.2 °C 30.20in /  1022.6hPa West 2.9mph /  4.7km/h 9.0mph /  14.5km/h 23% 0.00in /  0mm 47.0 W/m2
16:01 69.1 °F /  20.6 °C 30.7 °F /  -0.7 °C 30.20in /  1022.6hPa Calm   9.0mph /  14.5km/h 24% 0.00in /  0mm 44.0 W/m2
16:07 68.7 °F /  20.4 °C 30.4 °F /  -0.9 °C 30.20in /  1022.6hPa WSW 0.9mph /  1.4km/h 10.0mph /  16.1km/h 24% 0.00in /  0mm 40.0 W/m2
16:13 68.5 °F /  20.3 °C 30.4 °F /  -0.9 °C 30.20in /  1022.6hPa NW 2.0mph /  3.2km/h 10.0mph /  16.1km/h 24% 0.00in /  0mm 37.0 W/m2
16:19 68.4 °F /  20.2 °C 30.2 °F /  -1 °C 30.20in /  1022.6hPa SW 2.9mph /  4.7km/h 3.0mph /  4.8km/h 24% 0.00in /  0mm 37.0 W/m2
16:25 68.2 °F /  20.1 °C 30.0 °F /  -1.1 °C 30.20in /  1022.6hPa WNW 2.0mph /  3.2km/h 13.0mph /  20.9km/h 24% 0.00in /  0mm 35.0 W/m2
16:32 68.0 °F /  20 °C 29.8 °F /  -1.2 °C 30.21in /  1022.9hPa WNW 0.9mph /  1.4km/h 6.0mph /  9.7km/h 24% 0.00in /  0mm 33.0 W/m2
16:38 67.8 °F /  19.9 °C 29.7 °F /  -1.3 °C 30.20in /  1022.6hPa North 4.0mph /  6.4km/h 9.0mph /  14.5km/h 24% 0.00in /  0mm 32.0 W/m2
16:44 67.5 °F /  19.7 °C 30.4 °F /  -0.9 °C 30.20in /  1022.6hPa NW 2.0mph /  3.2km/h 8.0mph /  12.9km/h 25% 0.00in /  0mm 26.0 W/m2
16:48 67.5 °F /  19.7 °C 29.5 °F /  -1.4 °C 30.21in /  1022.9hPa NNW 0.9mph /  1.4km/h 8.0mph /  12.9km/h 24% 0.00in /  0mm 26.0 W/m2
16:54 67.3 °F /  19.6 °C 30.2 °F /  -1 °C 30.21in /  1022.9hPa Calm   6.0mph /  9.7km/h 25% 0.00in /  0mm 23.0 W/m2
17:00 66.9 °F /  19.4 °C 30.0 °F /  -1.1 °C 30.21in /  1022.9hPa Calm   8.0mph /  12.9km/h 25% 0.00in /  0mm 19.0 W/m2
17:06 66.6 °F /  19.2 °C 29.7 °F /  -1.3 °C 30.21in /  1022.9hPa NW 0.9mph /  1.4km/h 6.0mph /  9.7km/h 25% 0.00in /  0mm 12.0 W/m2
17:12 66.2 °F /  19 °C 29.3 °F /  -1.5 °C 30.21in /  1022.9hPa Calm   3.0mph /  4.8km/h 25% 0.00in /  0mm 7.0 W/m2
17:19 65.8 °F /  18.8 °C 28.9 °F /  -1.7 °C 30.21in /  1022.9hPa WNW 2.9mph /  4.7km/h 4.0mph /  6.4km/h 25% 0.00in /  0mm 0.0 W/m2
17:25 65.7 °F /  18.7 °C 28.9 °F /  -1.7 °C 30.21in /  1022.9hPa Calm   5.0mph /  8km/h 25% 0.00in /  0mm 0.0 W/m2
17:31 65.5 °F /  18.6 °C 27.7 °F /  -2.4 °C 30.21in /  1022.9hPa WNW 2.0mph /  3.2km/h 3.0mph /  4.8km/h 24% 0.00in /  0mm 0.0 W/m2
17:37 65.1 °F /  18.4 °C 27.5 °F /  -2.5 °C 30.22in /  1023.2hPa NW 0.9mph /  1.4km/h 1.0mph /  1.6km/h 24% 0.00in /  0mm 0.0 W/m2
17:43 64.8 °F /  18.2 °C 27.1 °F /  -2.7 °C 30.22in /  1023.2hPa Calm     24% 0.00in /  0mm 0.0 W/m2
17:49 64.6 °F /  18.1 °C 27.0 °F /  -2.8 °C 30.22in /  1023.2hPa Calm   2.0mph /  3.2km/h 24% 0.00in /  0mm 0.0 W/m2
17:55 64.0 °F /  17.8 °C 27.5 °F /  -2.5 °C 30.22in /  1023.2hPa Calm   1.0mph /  1.6km/h 25% 0.00in /  0mm 0.0 W/m2
18:01 63.7 °F /  17.6 °C 27.1 °F /  -2.7 °C 30.22in /  1023.2hPa Calm   5.0mph /  8km/h 25% 0.00in /  0mm 0.0 W/m2
18:08 63.3 °F /  17.4 °C 27.0 °F /  -2.8 °C 30.22in /  1023.2hPa Calm     25% 0.00in /  0mm 0.0 W/m2
18:14 63.0 °F /  17.2 °C 27.5 °F /  -2.5 °C 30.22in /  1023.2hPa NW 2.0mph /  3.2km/h 5.0mph /  8km/h 26% 0.00in /  0mm 0.0 W/m2
18:20 62.8 °F /  17.1 °C 27.3 °F /  -2.6 °C 30.23in /  1023.6hPa Calm   1.0mph /  1.6km/h 26% 0.00in /  0mm 0.0 W/m2
18:26 62.2 °F /  16.8 °C 27.0 °F /  -2.8 °C 30.23in /  1023.6hPa Calm   5.0mph /  8km/h 26% 0.00in /  0mm 0.0 W/m2
18:32 62.1 °F /  16.7 °C 27.7 °F /  -2.4 °C 30.23in /  1023.6hPa NNW 2.9mph /  4.7km/h 8.0mph /  12.9km/h 27% 0.00in /  0mm 0.0 W/m2
18:38 61.9 °F /  16.6 °C 26.6 °F /  -3 °C 30.23in /  1023.6hPa Calm   4.0mph /  6.4km/h 26% 0.00in /  0mm 0.0 W/m2
18:45 61.5 °F /  16.4 °C 26.2 °F /  -3.2 °C 30.23in /  1023.6hPa Calm   4.0mph /  6.4km/h 26% 0.00in /  0mm 0.0 W/m2
18:51 61.3 °F /  16.3 °C 26.2 °F /  -3.2 °C 30.24in /  1023.9hPa Calm     26% 0.00in /  0mm 0.0 W/m2
18:57 60.8 °F /  16 °C 25.7 °F /  -3.5 °C 30.24in /  1023.9hPa Calm     26% 0.00in /  0mm 0.0 W/m2
19:03 60.3 °F /  15.7 °C 26.1 °F /  -3.3 °C 30.24in /  1023.9hPa Calm     27% 0.00in /  0mm 0.0 W/m2
19:09 59.7 °F /  15.4 °C 26.6 °F /  -3 °C 30.24in /  1023.9hPa Calm     28% 0.00in /  0mm 0.0 W/m2
19:17 58.8 °F /  14.9 °C 26.6 °F /  -3 °C 30.24in /  1023.9hPa Calm     29% 0.00in /  0mm 0.0 W/m2
19:24 57.9 °F /  14.4 °C 25.9 °F /  -3.4 °C 30.25in /  1024.3hPa Calm     29% 0.00in /  0mm 0.0 W/m2
19:29 57.6 °F /  14.2 °C 25.5 °F /  -3.6 °C 30.25in /  1024.3hPa Calm     29% 0.00in /  0mm 0.0 W/m2
19:36 57.2 °F /  14 °C 26.1 °F /  -3.3 °C 30.25in /  1024.3hPa Calm     30% 0.00in /  0mm 0.0 W/m2
19:42 56.7 °F /  13.7 °C 26.4 °F /  -3.1 °C 30.25in /  1024.3hPa Calm     31% 0.00in /  0mm 0.0 W/m2
19:48 56.1 °F /  13.4 °C 25.9 °F /  -3.4 °C 30.25in /  1024.3hPa Calm     31% 0.00in /  0mm 0.0 W/m2
19:54 55.6 °F /  13.1 °C 26.2 °F /  -3.2 °C 30.25in /  1024.3hPa Calm     32% 0.00in /  0mm 0.0 W/m2
20:00 55.0 °F /  12.8 °C 25.7 °F /  -3.5 °C 30.25in /  1024.3hPa Calm     32% 0.00in /  0mm 0.0 W/m2
20:06 54.3 °F /  12.4 °C 25.9 °F /  -3.4 °C 30.25in /  1024.3hPa Calm     33% 0.00in /  0mm 0.0 W/m2
20:12 54.0 °F /  12.2 °C 25.5 °F /  -3.6 °C 30.25in /  1024.3hPa Calm     33% 0.00in /  0mm 0.0 W/m2
20:18 53.4 °F /  11.9 °C 25.7 °F /  -3.5 °C 30.25in /  1024.3hPa Calm     34% 0.00in /  0mm 0.0 W/m2
20:24 53.1 °F /  11.7 °C 25.3 °F /  -3.7 °C 30.25in /  1024.3hPa Calm     34% 0.00in /  0mm 0.0 W/m2
20:30 52.7 °F /  11.5 °C 25.9 °F /  -3.4 °C 30.26in /  1024.6hPa Calm     35% 0.00in /  0mm 0.0 W/m2
20:36 52.5 °F /  11.4 °C 26.2 °F /  -3.2 °C 30.26in /  1024.6hPa Calm     36% 0.00in /  0mm 0.0 W/m2
20:42 52.3 °F /  11.3 °C 26.2 °F /  -3.2 °C 30.26in /  1024.6hPa Calm     36% 0.00in /  0mm 0.0 W/m2
20:49 52.3 °F /  11.3 °C 26.8 °F /  -2.9 °C 30.26in /  1024.6hPa Calm     37% 0.00in /  0mm 0.0 W/m2
20:55 52.2 °F /  11.2 °C 26.6 °F /  -3 °C 30.26in /  1024.6hPa Calm     37% 0.00in /  0mm 0.0 W/m2
21:01 51.8 °F /  11 °C 27.0 °F /  -2.8 °C 30.26in /  1024.6hPa Calm     38% 0.00in /  0mm 0.0 W/m2
21:07 51.6 °F /  10.9 °C 27.5 °F /  -2.5 °C 30.26in /  1024.6hPa Calm     39% 0.00in /  0mm 0.0 W/m2
21:13 51.3 °F /  10.7 °C 27.1 °F /  -2.7 °C 30.26in /  1024.6hPa Calm     39% 0.00in /  0mm 0.0 W/m2
21:19 51.1 °F /  10.6 °C 27.0 °F /  -2.8 °C 30.26in /  1024.6hPa Calm     39% 0.00in /  0mm 0.0 W/m2
21:26 51.1 °F /  10.6 °C 27.0 °F /  -2.8 °C 30.27in /  1024.9hPa Calm     39% 0.00in /  0mm 0.0 W/m2
21:32 51.1 °F /  10.6 °C 27.7 °F /  -2.4 °C 30.27in /  1024.9hPa Calm     40% 0.00in /  0mm 0.0 W/m2
21:38 51.1 °F /  10.6 °C 27.7 °F /  -2.4 °C 30.27in /  1024.9hPa Calm     40% 0.00in /  0mm 0.0 W/m2
21:44 50.9 °F /  10.5 °C 27.5 °F /  -2.5 °C 30.27in /  1024.9hPa Calm     40% 0.00in /  0mm 0.0 W/m2
21:50 50.7 °F /  10.4 °C 27.9 °F /  -2.3 °C 30.27in /  1024.9hPa Calm     41% 0.00in /  0mm 0.0 W/m2
21:56 50.5 °F /  10.3 °C 27.7 °F /  -2.4 °C 30.27in /  1024.9hPa Calm     41% 0.00in /  0mm 0.0 W/m2
22:02 50.4 °F /  10.2 °C 27.5 °F /  -2.5 °C 30.27in /  1024.9hPa Calm     41% 0.00in /  0mm 0.0 W/m2
22:08 50.0 °F /  10 °C 27.9 °F /  -2.3 °C 30.27in /  1024.9hPa Calm     42% 0.00in /  0mm 0.0 W/m2
22:15 49.8 °F /  9.9 °C 27.7 °F /  -2.4 °C 30.27in /  1024.9hPa Calm     42% 0.00in /  0mm 0.0 W/m2
22:21 49.6 °F /  9.8 °C 28.0 °F /  -2.2 °C 30.27in /  1024.9hPa Calm     43% 0.00in /  0mm 0.0 W/m2
22:27 49.6 °F /  9.8 °C 28.0 °F /  -2.2 °C 30.28in /  1025.3hPa Calm   2.0mph /  3.2km/h 43% 0.00in /  0mm 0.0 W/m2
22:33 49.8 °F /  9.9 °C 28.8 °F /  -1.8 °C 30.28in /  1025.3hPa Calm   4.0mph /  6.4km/h 44% 0.00in /  0mm 0.0 W/m2
22:39 50.2 °F /  10.1 °C 29.1 °F /  -1.6 °C 30.28in /  1025.3hPa Calm   2.0mph /  3.2km/h 44% 0.00in /  0mm 0.0 W/m2
22:45 50.9 °F /  10.5 °C 29.8 °F /  -1.2 °C 30.28in /  1025.3hPa Calm   2.0mph /  3.2km/h 44% 0.00in /  0mm 0.0 W/m2
22:51 51.3 °F /  10.7 °C 29.5 °F /  -1.4 °C 30.28in /  1025.3hPa Calm   1.0mph /  1.6km/h 43% 0.00in /  0mm 0.0 W/m2
22:58 51.3 °F /  10.7 °C 30.0 °F /  -1.1 °C 30.28in /  1025.3hPa Calm     44% 0.00in /  0mm 0.0 W/m2
23:04 51.3 °F /  10.7 °C 30.0 °F /  -1.1 °C 30.28in /  1025.3hPa Calm     44% 0.00in /  0mm 0.0 W/m2
23:10 51.1 °F /  10.6 °C 30.6 °F /  -0.8 °C 30.28in /  1025.3hPa Calm     45% 0.00in /  0mm 0.0 W/m2
23:16 50.7 °F /  10.4 °C 30.7 °F /  -0.7 °C 30.28in /  1025.3hPa Calm     46% 0.00in /  0mm 0.0 W/m2
23:22 50.4 °F /  10.2 °C 30.4 °F /  -0.9 °C 30.28in /  1025.3hPa Calm     46% 0.00in /  0mm 0.0 W/m2
23:28 49.8 °F /  9.9 °C 30.4 °F /  -0.9 °C 30.27in /  1024.9hPa Calm     47% 0.00in /  0mm 0.0 W/m2
23:34 49.6 °F /  9.8 °C 30.7 °F /  -0.7 °C 30.27in /  1024.9hPa Calm     48% 0.00in /  0mm 0.0 W/m2
23:40 49.3 °F /  9.6 °C 30.9 °F /  -0.6 °C 30.27in /  1024.9hPa Calm     49% 0.00in /  0mm 0.0 W/m2
23:46 48.7 °F /  9.3 °C 30.9 °F /  -0.6 °C 30.28in /  1025.3hPa Calm     50% 0.00in /  0mm 0.0 W/m2
23:52 48.4 °F /  9.1 °C 30.6 °F /  -0.8 °C 30.28in /  1025.3hPa Calm     50% 0.00in /  0mm 0.0 W/m2
23:58 48.0 °F /  8.9 °C 30.7 °F /  -0.7 °C 30.28in /  1025.3hPa Calm     51% 0.00in /  0mm 0.0 W/m2
Olympia, Windhoek, Namibia
Compliments of Weather Underground - 3 mb